sensor_id;sensor_type;location;lat;lon;timestamp;temperature;humidity
5419;DHT22;2732;52.092;11.556;2023-05-27T00:04:58;10.10;89.50
5419;DHT22;2732;52.092;11.556;2023-05-27T00:09:59;10.00;90.00
5419;DHT22;2732;52.092;11.556;2023-05-27T00:14:59;10.00;90.10
5419;DHT22;2732;52.092;11.556;2023-05-27T00:20:00;9.90;90.70
5419;DHT22;2732;52.092;11.556;2023-05-27T00:25:07;9.90;90.90
5419;DHT22;2732;52.092;11.556;2023-05-27T00:30:08;9.90;91.00
5419;DHT22;2732;52.092;11.556;2023-05-27T00:35:09;9.90;91.20
5419;DHT22;2732;52.092;11.556;2023-05-27T00:40:11;9.90;91.30
5419;DHT22;2732;52.092;11.556;2023-05-27T00:45:12;9.80;91.60
5419;DHT22;2732;52.092;11.556;2023-05-27T00:50:17;9.80;91.70
5419;DHT22;2732;52.092;11.556;2023-05-27T00:55:19;9.80;91.80
5419;DHT22;2732;52.092;11.556;2023-05-27T01:00:20;9.80;91.90
5419;DHT22;2732;52.092;11.556;2023-05-27T01:05:21;9.80;92.10
5419;DHT22;2732;52.092;11.556;2023-05-27T01:10:40;9.80;92.30
5419;DHT22;2732;52.092;11.556;2023-05-27T01:15:43;9.70;92.40
5419;DHT22;2732;52.092;11.556;2023-05-27T01:20:47;9.70;92.50
5419;DHT22;2732;52.092;11.556;2023-05-27T01:25:48;9.70;92.60
5419;DHT22;2732;52.092;11.556;2023-05-27T01:30:52;9.70;92.80
5419;DHT22;2732;52.092;11.556;2023-05-27T01:36:01;9.60;92.80
5419;DHT22;2732;52.092;11.556;2023-05-27T01:41:04;9.60;93.10
5419;DHT22;2732;52.092;11.556;2023-05-27T01:46:05;9.50;93.10
5419;DHT22;2732;52.092;11.556;2023-05-27T01:51:06;9.50;93.30
5419;DHT22;2732;52.092;11.556;2023-05-27T01:56:06;9.40;93.60
5419;DHT22;2732;52.092;11.556;2023-05-27T02:01:07;9.40;93.70
5419;DHT22;2732;52.092;11.556;2023-05-27T02:06:07;9.30;94.00
5419;DHT22;2732;52.092;11.556;2023-05-27T02:11:08;9.30;94.30
5419;DHT22;2732;52.092;11.556;2023-05-27T02:16:09;9.30;94.50
5419;DHT22;2732;52.092;11.556;2023-05-27T02:21:09;9.20;94.70
5419;DHT22;2732;52.092;11.556;2023-05-27T02:26:10;9.20;95.00
5419;DHT22;2732;52.092;11.556;2023-05-27T02:31:10;9.10;95.00
5419;DHT22;2732;52.092;11.556;2023-05-27T02:36:11;9.10;95.30
5419;DHT22;2732;52.092;11.556;2023-05-27T02:41:11;9.10;95.50
5419;DHT22;2732;52.092;11.556;2023-05-27T02:46:12;9.00;95.80
5419;DHT22;2732;52.092;11.556;2023-05-27T02:51:12;9.00;96.10
5419;DHT22;2732;52.092;11.556;2023-05-27T02:56:13;8.90;96.30
5419;DHT22;2732;52.092;11.556;2023-05-27T03:01:16;8.90;96.60
5419;DHT22;2732;52.092;11.556;2023-05-27T03:06:16;8.90;96.90
5419;DHT22;2732;52.092;11.556;2023-05-27T03:11:17;8.80;96.90
5419;DHT22;2732;52.092;11.556;2023-05-27T03:16:18;8.80;97.00
5419;DHT22;2732;52.092;11.556;2023-05-27T03:21:19;8.80;97.30
5419;DHT22;2732;52.092;11.556;2023-05-27T03:26:20;8.70;97.60
5419;DHT22;2732;52.092;11.556;2023-05-27T03:31:22;8.70;97.80
5419;DHT22;2732;52.092;11.556;2023-05-27T03:36:22;8.70;97.90
5419;DHT22;2732;52.092;11.556;2023-05-27T03:41:23;8.70;98.20
5419;DHT22;2732;52.092;11.556;2023-05-27T03:46:23;8.70;98.30
5419;DHT22;2732;52.092;11.556;2023-05-27T03:51:24;8.80;98.40
5419;DHT22;2732;52.092;11.556;2023-05-27T03:56:25;8.80;98.60
5419;DHT22;2732;52.092;11.556;2023-05-27T04:01:26;8.80;99.00
5419;DHT22;2732;52.092;11.556;2023-05-27T04:06:28;8.90;99.20
5419;DHT22;2732;52.092;11.556;2023-05-27T04:11:29;8.90;99.50
5419;DHT22;2732;52.092;11.556;2023-05-27T04:16:30;9.00;99.70
5419;DHT22;2732;52.092;11.556;2023-05-27T04:21:31;9.00;99.60
5419;DHT22;2732;52.092;11.556;2023-05-27T04:26:31;9.10;99.40
5419;DHT22;2732;52.092;11.556;2023-05-27T04:31:33;9.10;99.30
5419;DHT22;2732;52.092;11.556;2023-05-27T04:36:36;9.10;99.40
5419;DHT22;2732;52.092;11.556;2023-05-27T04:41:37;9.20;99.50
5419;DHT22;2732;52.092;11.556;2023-05-27T04:46:39;9.20;99.50
5419;DHT22;2732;52.092;11.556;2023-05-27T04:51:41;9.30;99.60
5419;DHT22;2732;52.092;11.556;2023-05-27T04:56:41;9.40;99.90
5419;DHT22;2732;52.092;11.556;2023-05-27T05:01:42;9.40;99.90
5419;DHT22;2732;52.092;11.556;2023-05-27T05:07:09;9.50;99.90
5419;DHT22;2732;52.092;11.556;2023-05-27T05:12:11;9.60;99.90
5419;DHT22;2732;52.092;11.556;2023-05-27T05:17:11;9.60;99.90
5419;DHT22;2732;52.092;11.556;2023-05-27T05:22:12;9.70;99.90
5419;DHT22;2732;52.092;11.556;2023-05-27T05:27:18;9.80;99.90
5419;DHT22;2732;52.092;11.556;2023-05-27T05:32:19;9.90;99.90
5419;DHT22;2732;52.092;11.556;2023-05-27T05:37:20;10.00;99.90
5419;DHT22;2732;52.092;11.556;2023-05-27T05:42:20;10.10;99.90
5419;DHT22;2732;52.092;11.556;2023-05-27T05:47:21;10.20;99.90
5419;DHT22;2732;52.092;11.556;2023-05-27T05:52:21;10.30;99.90
5419;DHT22;2732;52.092;11.556;2023-05-27T05:57:22;10.40;99.90
5419;DHT22;2732;52.092;11.556;2023-05-27T06:02:23;10.50;99.90
5419;DHT22;2732;52.092;11.556;2023-05-27T06:07:25;10.60;99.90
5419;DHT22;2732;52.092;11.556;2023-05-27T06:12:26;10.70;99.90
5419;DHT22;2732;52.092;11.556;2023-05-27T06:17:26;10.80;99.90
5419;DHT22;2732;52.092;11.556;2023-05-27T06:22:27;11.00;99.90
5419;DHT22;2732;52.092;11.556;2023-05-27T06:27:28;11.10;99.90
5419;DHT22;2732;52.092;11.556;2023-05-27T06:32:28;11.20;99.90
5419;DHT22;2732;52.092;11.556;2023-05-27T06:37:29;11.30;99.90
5419;DHT22;2732;52.092;11.556;2023-05-27T06:42:29;11.50;99.90
5419;DHT22;2732;52.092;11.556;2023-05-27T06:47:30;11.60;99.90
5419;DHT22;2732;52.092;11.556;2023-05-27T06:52:31;11.70;99.90
5419;DHT22;2732;52.092;11.556;2023-05-27T06:57:31;11.90;99.90
5419;DHT22;2732;52.092;11.556;2023-05-27T07:02:32;12.00;99.90
5419;DHT22;2732;52.092;11.556;2023-05-27T07:07:32;12.10;99.90
5419;DHT22;2732;52.092;11.556;2023-05-27T07:12:33;12.20;99.90
5419;DHT22;2732;52.092;11.556;2023-05-27T07:17:34;12.40;99.90
5419;DHT22;2732;52.092;11.556;2023-05-27T07:22:36;12.60;99.90
5419;DHT22;2732;52.092;11.556;2023-05-27T07:27:37;12.70;99.90
5419;DHT22;2732;52.092;11.556;2023-05-27T07:32:39;13.20;99.70
5419;DHT22;2732;52.092;11.556;2023-05-27T07:37:39;14.00;98.80
5419;DHT22;2732;52.092;11.556;2023-05-27T07:42:40;14.90;97.70
5419;DHT22;2732;52.092;11.556;2023-05-27T07:47:41;15.50;96.40
5419;DHT22;2732;52.092;11.556;2023-05-27T07:52:41;16.20;95.40
5419;DHT22;2732;52.092;11.556;2023-05-27T07:57:43;16.70;94.40
5419;DHT22;2732;52.092;11.556;2023-05-27T08:02:44;17.20;93.70
5419;DHT22;2732;52.092;11.556;2023-05-27T08:07:44;17.40;93.00
5419;DHT22;2732;52.092;11.556;2023-05-27T08:12:45;18.10;92.10
5419;DHT22;2732;52.092;11.556;2023-05-27T08:17:46;18.60;91.10
5419;DHT22;2732;52.092;11.556;2023-05-27T08:22:46;18.90;90.50
5419;DHT22;2732;52.092;11.556;2023-05-27T08:27:53;19.30;89.50
5419;DHT22;2732;52.092;11.556;2023-05-27T08:32:56;19.60;88.60
5419;DHT22;2732;52.092;11.556;2023-05-27T08:37:58;20.10;86.70
5419;DHT22;2732;52.092;11.556;2023-05-27T08:42:59;20.50;85.90
5419;DHT22;2732;52.092;11.556;2023-05-27T08:48:01;20.80;84.80
5419;DHT22;2732;52.092;11.556;2023-05-27T08:53:03;21.10;83.60
5419;DHT22;2732;52.092;11.556;2023-05-27T08:58:05;21.60;82.00
5419;DHT22;2732;52.092;11.556;2023-05-27T09:03:06;21.90;81.00
5419;DHT22;2732;52.092;11.556;2023-05-27T09:08:07;21.60;79.80
5419;DHT22;2732;52.092;11.556;2023-05-27T09:13:08;21.90;79.20
5419;DHT22;2732;52.092;11.556;2023-05-27T09:18:08;22.40;77.90
5419;DHT22;2732;52.092;11.556;2023-05-27T09:23:11;22.80;76.80
5419;DHT22;2732;52.092;11.556;2023-05-27T09:28:12;23.30;74.90
5419;DHT22;2732;52.092;11.556;2023-05-27T09:33:13;23.60;73.70
5419;DHT22;2732;52.092;11.556;2023-05-27T09:38:13;23.90;73.20
5419;DHT22;2732;52.092;11.556;2023-05-27T09:43:17;24.20;73.00
5419;DHT22;2732;52.092;11.556;2023-05-27T09:48:19;24.40;71.00
5419;DHT22;2732;52.092;11.556;2023-05-27T09:53:26;24.70;70.50
5419;DHT22;2732;52.092;11.556;2023-05-27T09:58:27;24.80;69.60
5419;DHT22;2732;52.092;11.556;2023-05-27T10:03:29;24.90;68.30
5419;DHT22;2732;52.092;11.556;2023-05-27T10:08:30;25.20;67.60
5419;DHT22;2732;52.092;11.556;2023-05-27T10:13:31;25.50;66.40
5419;DHT22;2732;52.092;11.556;2023-05-27T10:18:32;25.70;65.10
5419;DHT22;2732;52.092;11.556;2023-05-27T10:23:34;26.00;64.00
5419;DHT22;2732;52.092;11.556;2023-05-27T10:28:39;26.30;62.80
5419;DHT22;2732;52.092;11.556;2023-05-27T10:33:43;26.60;62.70
5419;DHT22;2732;52.092;11.556;2023-05-27T10:39:05;26.80;61.20
5419;DHT22;2732;52.092;11.556;2023-05-27T10:44:06;27.00;60.20
5419;DHT22;2732;52.092;11.556;2023-05-27T10:49:16;27.10;60.50
5419;DHT22;2732;52.092;11.556;2023-05-27T10:54:25;27.30;59.90
5419;DHT22;2732;52.092;11.556;2023-05-27T10:59:39;27.40;58.80
5419;DHT22;2732;52.092;11.556;2023-05-27T11:04:58;27.60;58.00
5419;DHT22;2732;52.092;11.556;2023-05-27T11:09:59;27.80;57.40
5419;DHT22;2732;52.092;11.556;2023-05-27T11:14:59;27.90;57.30
5419;DHT22;2732;52.092;11.556;2023-05-27T11:20:00;28.10;56.80
5419;DHT22;2732;52.092;11.556;2023-05-27T11:25:03;28.20;55.60
5419;DHT22;2732;52.092;11.556;2023-05-27T11:30:07;28.30;54.50
5419;DHT22;2732;52.092;11.556;2023-05-27T11:35:14;28.40;54.20
5419;DHT22;2732;52.092;11.556;2023-05-27T11:40:18;28.60;54.00
5419;DHT22;2732;52.092;11.556;2023-05-27T11:45:20;28.70;53.40
5419;DHT22;2732;52.092;11.556;2023-05-27T11:50:24;29.00;53.10
5419;DHT22;2732;52.092;11.556;2023-05-27T11:55:25;29.20;52.60
5419;DHT22;2732;52.092;11.556;2023-05-27T12:00:26;29.30;51.70
5419;DHT22;2732;52.092;11.556;2023-05-27T12:05:27;29.40;51.40
5419;DHT22;2732;52.092;11.556;2023-05-27T12:10:28;29.80;50.90
5419;DHT22;2732;52.092;11.556;2023-05-27T12:15:28;29.90;50.20
5419;DHT22;2732;52.092;11.556;2023-05-27T12:20:29;30.10;50.20
5419;DHT22;2732;52.092;11.556;2023-05-27T12:25:30;30.20;49.50
5419;DHT22;2732;52.092;11.556;2023-05-27T12:30:31;30.30;49.60
5419;DHT22;2732;52.092;11.556;2023-05-27T12:35:32;30.40;49.60
5419;DHT22;2732;52.092;11.556;2023-05-27T12:40:34;30.60;48.80
5419;DHT22;2732;52.092;11.556;2023-05-27T12:45:36;30.70;49.20
5419;DHT22;2732;52.092;11.556;2023-05-27T12:50:37;30.80;49.10
5419;DHT22;2732;52.092;11.556;2023-05-27T12:55:39;30.80;49.20
5419;DHT22;2732;52.092;11.556;2023-05-27T13:00:39;30.90;49.10
5419;DHT22;2732;52.092;11.556;2023-05-27T13:05:40;31.00;48.40
5419;DHT22;2732;52.092;11.556;2023-05-27T13:10:40;31.10;48.90
5419;DHT22;2732;52.092;11.556;2023-05-27T13:15:41;31.10;48.10
5419;DHT22;2732;52.092;11.556;2023-05-27T13:20:42;31.10;48.40
5419;DHT22;2732;52.092;11.556;2023-05-27T13:25:43;31.20;48.90
5419;DHT22;2732;52.092;11.556;2023-05-27T13:30:43;31.30;48.70
5419;DHT22;2732;52.092;11.556;2023-05-27T13:35:44;31.30;48.20
5419;DHT22;2732;52.092;11.556;2023-05-27T13:40:45;31.30;48.10
5419;DHT22;2732;52.092;11.556;2023-05-27T13:45:45;31.40;48.20
5419;DHT22;2732;52.092;11.556;2023-05-27T13:50:46;31.30;48.10
5419;DHT22;2732;52.092;11.556;2023-05-27T13:55:46;31.30;48.10
5419;DHT22;2732;52.092;11.556;2023-05-27T14:00:47;31.30;47.90
5419;DHT22;2732;52.092;11.556;2023-05-27T14:05:48;31.40;48.00
5419;DHT22;2732;52.092;11.556;2023-05-27T14:10:50;31.40;47.90
5419;DHT22;2732;52.092;11.556;2023-05-27T14:15:51;31.40;47.40
5419;DHT22;2732;52.092;11.556;2023-05-27T14:20:51;31.40;47.50
5419;DHT22;2732;52.092;11.556;2023-05-27T14:25:52;31.40;47.10
5419;DHT22;2732;52.092;11.556;2023-05-27T14:30:53;31.40;47.00
5419;DHT22;2732;52.092;11.556;2023-05-27T14:35:54;31.30;46.40
5419;DHT22;2732;52.092;11.556;2023-05-27T14:40:54;31.30;45.80
5419;DHT22;2732;52.092;11.556;2023-05-27T14:45:58;31.30;45.90
5419;DHT22;2732;52.092;11.556;2023-05-27T14:50:58;31.20;45.70
5419;DHT22;2732;52.092;11.556;2023-05-27T14:55:59;31.20;45.40
5419;DHT22;2732;52.092;11.556;2023-05-27T15:01:00;31.20;45.50
5419;DHT22;2732;52.092;11.556;2023-05-27T15:06:01;31.20;45.80
5419;DHT22;2732;52.092;11.556;2023-05-27T15:11:01;31.20;45.20
5419;DHT22;2732;52.092;11.556;2023-05-27T15:16:02;31.20;44.70
5419;DHT22;2732;52.092;11.556;2023-05-27T15:21:03;31.20;45.00
5419;DHT22;2732;52.092;11.556;2023-05-27T15:26:04;31.10;45.30
5419;DHT22;2732;52.092;11.556;2023-05-27T15:31:04;30.80;44.20
5419;DHT22;2732;52.092;11.556;2023-05-27T15:36:06;30.80;44.80
5419;DHT22;2732;52.092;11.556;2023-05-27T15:41:07;30.80;45.30
5419;DHT22;2732;52.092;11.556;2023-05-27T15:46:07;30.80;45.90
5419;DHT22;2732;52.092;11.556;2023-05-27T15:51:08;30.80;45.50
5419;DHT22;2732;52.092;11.556;2023-05-27T15:56:13;30.70;45.40
5419;DHT22;2732;52.092;11.556;2023-05-27T16:01:13;30.70;45.90
5419;DHT22;2732;52.092;11.556;2023-05-27T16:06:15;30.60;44.50
5419;DHT22;2732;52.092;11.556;2023-05-27T16:11:18;30.50;44.80
5419;DHT22;2732;52.092;11.556;2023-05-27T16:16:19;30.60;44.80
5419;DHT22;2732;52.092;11.556;2023-05-27T16:21:20;30.50;44.80
5419;DHT22;2732;52.092;11.556;2023-05-27T16:26:21;30.40;44.30
5419;DHT22;2732;52.092;11.556;2023-05-27T16:31:21;30.30;44.30
5419;DHT22;2732;52.092;11.556;2023-05-27T16:36:22;30.20;43.00
5419;DHT22;2732;52.092;11.556;2023-05-27T16:41:23;30.00;44.00
5419;DHT22;2732;52.092;11.556;2023-05-27T16:46:24;30.00;44.70
5419;DHT22;2732;52.092;11.556;2023-05-27T16:51:24;29.90;44.00
5419;DHT22;2732;52.092;11.556;2023-05-27T16:56:26;29.70;43.80
5419;DHT22;2732;52.092;11.556;2023-05-27T17:01:27;29.60;44.00
5419;DHT22;2732;52.092;11.556;2023-05-27T17:06:28;29.50;43.90
5419;DHT22;2732;52.092;11.556;2023-05-27T17:11:28;29.40;44.30
5419;DHT22;2732;52.092;11.556;2023-05-27T17:16:29;29.20;43.30
5419;DHT22;2732;52.092;11.556;2023-05-27T17:21:30;29.10;43.20
5419;DHT22;2732;52.092;11.556;2023-05-27T17:26:31;28.90;43.40
5419;DHT22;2732;52.092;11.556;2023-05-27T17:31:31;28.70;43.40
5419;DHT22;2732;52.092;11.556;2023-05-27T17:36:32;28.40;44.00
5419;DHT22;2732;52.092;11.556;2023-05-27T17:41:33;28.20;43.60
5419;DHT22;2732;52.092;11.556;2023-05-27T17:46:33;28.00;43.40
5419;DHT22;2732;52.092;11.556;2023-05-27T17:51:34;27.70;43.40
5419;DHT22;2732;52.092;11.556;2023-05-27T17:56:35;27.20;43.40
5419;DHT22;2732;52.092;11.556;2023-05-27T18:01:38;26.80;43.50
5419;DHT22;2732;52.092;11.556;2023-05-27T18:06:39;26.30;43.60
5419;DHT22;2732;52.092;11.556;2023-05-27T18:11:41;25.90;43.90
5419;DHT22;2732;52.092;11.556;2023-05-27T18:16:41;25.40;44.70
5419;DHT22;2732;52.092;11.556;2023-05-27T18:21:42;25.00;45.90
5419;DHT22;2732;52.092;11.556;2023-05-27T18:26:43;24.60;45.70
5419;DHT22;2732;52.092;11.556;2023-05-27T18:31:43;24.20;46.30
5419;DHT22;2732;52.092;11.556;2023-05-27T18:36:44;23.80;47.00
5419;DHT22;2732;52.092;11.556;2023-05-27T18:41:45;23.50;47.70
5419;DHT22;2732;52.092;11.556;2023-05-27T18:46:46;23.10;48.40
5419;DHT22;2732;52.092;11.556;2023-05-27T18:51:46;22.70;49.40
5419;DHT22;2732;52.092;11.556;2023-05-27T18:56:47;22.30;51.20
5419;DHT22;2732;52.092;11.556;2023-05-27T19:01:48;22.00;51.80
5419;DHT22;2732;52.092;11.556;2023-05-27T19:06:49;21.60;52.30
5419;DHT22;2732;52.092;11.556;2023-05-27T19:11:49;21.30;52.70
5419;DHT22;2732;52.092;11.556;2023-05-27T19:16:50;21.00;53.00
5419;DHT22;2732;52.092;11.556;2023-05-27T19:21:50;20.70;53.50
5419;DHT22;2732;52.092;11.556;2023-05-27T19:26:51;20.30;53.70
5419;DHT22;2732;52.092;11.556;2023-05-27T19:31:51;20.00;54.40
5419;DHT22;2732;52.092;11.556;2023-05-27T19:36:52;19.70;54.50
5419;DHT22;2732;52.092;11.556;2023-05-27T19:41:53;19.40;55.00
5419;DHT22;2732;52.092;11.556;2023-05-27T19:46:54;19.10;55.70
5419;DHT22;2732;52.092;11.556;2023-05-27T19:51:55;18.80;56.00
5419;DHT22;2732;52.092;11.556;2023-05-27T19:56:55;18.50;56.40
5419;DHT22;2732;52.092;11.556;2023-05-27T20:01:57;18.20;56.80
5419;DHT22;2732;52.092;11.556;2023-05-27T20:06:59;18.00;57.40
5419;DHT22;2732;52.092;11.556;2023-05-27T20:12:00;17.70;57.80
5419;DHT22;2732;52.092;11.556;2023-05-27T20:17:00;17.50;58.40
5419;DHT22;2732;52.092;11.556;2023-05-27T20:22:01;17.20;58.80
5419;DHT22;2732;52.092;11.556;2023-05-27T20:27:01;16.90;59.10
5419;DHT22;2732;52.092;11.556;2023-05-27T20:32:02;16.70;59.40
5419;DHT22;2732;52.092;11.556;2023-05-27T20:37:03;16.50;59.60
5419;DHT22;2732;52.092;11.556;2023-05-27T20:42:04;16.20;60.00
5419;DHT22;2732;52.092;11.556;2023-05-27T20:47:06;16.00;60.70
5419;DHT22;2732;52.092;11.556;2023-05-27T20:52:07;15.80;61.30
5419;DHT22;2732;52.092;11.556;2023-05-27T20:57:07;15.50;61.90
5419;DHT22;2732;52.092;11.556;2023-05-27T21:02:09;15.30;62.40
5419;DHT22;2732;52.092;11.556;2023-05-27T21:07:12;15.10;63.00
5419;DHT22;2732;52.092;11.556;2023-05-27T21:12:13;14.90;63.40
5419;DHT22;2732;52.092;11.556;2023-05-27T21:17:14;14.80;63.60
5419;DHT22;2732;52.092;11.556;2023-05-27T21:22:15;14.60;64.10
5419;DHT22;2732;52.092;11.556;2023-05-27T21:27:15;14.40;64.70
5419;DHT22;2732;52.092;11.556;2023-05-27T21:32:17;14.20;65.00
5419;DHT22;2732;52.092;11.556;2023-05-27T21:37:18;14.10;65.60
5419;DHT22;2732;52.092;11.556;2023-05-27T21:42:19;13.90;66.00
5419;DHT22;2732;52.092;11.556;2023-05-27T21:47:22;13.70;66.60
5419;DHT22;2732;52.092;11.556;2023-05-27T21:52:22;13.60;67.40
5419;DHT22;2732;52.092;11.556;2023-05-27T21:57:28;13.40;67.70
5419;DHT22;2732;52.092;11.556;2023-05-27T22:02:29;13.30;68.20
5419;DHT22;2732;52.092;11.556;2023-05-27T22:07:29;13.10;68.70
5419;DHT22;2732;52.092;11.556;2023-05-27T22:12:30;13.00;69.10
5419;DHT22;2732;52.092;11.556;2023-05-27T22:17:31;12.80;69.40
5419;DHT22;2732;52.092;11.556;2023-05-27T22:22:31;12.70;69.80
5419;DHT22;2732;52.092;11.556;2023-05-27T22:27:33;12.60;70.30
5419;DHT22;2732;52.092;11.556;2023-05-27T22:32:34;12.40;70.90
5419;DHT22;2732;52.092;11.556;2023-05-27T22:37:38;12.30;71.20
5419;DHT22;2732;52.092;11.556;2023-05-27T22:42:39;12.20;71.70
5419;DHT22;2732;52.092;11.556;2023-05-27T22:47:40;12.10;72.10
5419;DHT22;2732;52.092;11.556;2023-05-27T22:52:42;12.00;72.50
5419;DHT22;2732;52.092;11.556;2023-05-27T22:57:43;11.90;73.00
5419;DHT22;2732;52.092;11.556;2023-05-27T23:02:44;11.80;73.50
5419;DHT22;2732;52.092;11.556;2023-05-27T23:07:44;11.70;74.10
5419;DHT22;2732;52.092;11.556;2023-05-27T23:12:45;11.60;74.60
5419;DHT22;2732;52.092;11.556;2023-05-27T23:17:45;11.50;75.10
5419;DHT22;2732;52.092;11.556;2023-05-27T23:22:46;11.40;75.60
5419;DHT22;2732;52.092;11.556;2023-05-27T23:27:46;11.30;76.00
5419;DHT22;2732;52.092;11.556;2023-05-27T23:32:47;11.20;76.60
5419;DHT22;2732;52.092;11.556;2023-05-27T23:37:49;11.10;77.20
5419;DHT22;2732;52.092;11.556;2023-05-27T23:42:49;11.00;77.90
5419;DHT22;2732;52.092;11.556;2023-05-27T23:47:50;10.90;78.30
5419;DHT22;2732;52.092;11.556;2023-05-27T23:52:51;10.80;78.90
5419;DHT22;2732;52.092;11.556;2023-05-27T23:57:52;10.80;79.40
